Middletown, Connecticut
Current Conditions -  °F | °C
As of 6:53 PM on Monday 20 Oct 2014 (Local Time) from KMMK Reporting Station
Clear Clear  
Wind Chill: 52°   Ceiling: Unl
Heat Index: 52°   Visibility: 10mi
Dew Point: 38°   Wind: 5mph
Humidity: 59%   Direction: 180°S
Pressure: 29.99"   Gusts: NA
Location:  41.56°N, 72.65°W
Report Text: KMMK 202253Z AUTO 18004KT 10SM CLR 11/03 A2999 RMK AO2 SLP156 T01110033 TSNO
Loading
Personal Weather Stations






























Interactive Weather Map
Tropical Storm Tracking
New forecast layout! Learn more

10-Day Weather Forecast

Advertisements
Track Severe Weather on mobile